createdAt,value
2023-04-30T00:02:16.670Z,77.70
2023-04-30T00:05:18.795Z,77.88
2023-04-30T00:08:20.862Z,78.09
2023-04-30T00:11:22.990Z,77.89
2023-04-30T00:14:25.155Z,76.73
2023-04-30T00:17:27.392Z,77.18
2023-04-30T00:20:29.700Z,77.74
2023-04-30T00:23:31.783Z,77.21
2023-04-30T00:26:33.915Z,76.39
2023-04-30T00:29:36.178Z,77.23
2023-04-30T00:32:38.373Z,75.83
2023-04-30T00:35:40.785Z,76.59
2023-04-30T00:38:42.957Z,75.98
2023-04-30T00:41:45.184Z,75.85
2023-04-30T00:44:47.541Z,76.55
2023-04-30T00:47:51.654Z,75.62
2023-04-30T00:50:54.032Z,76.75
2023-04-30T00:53:56.737Z,75.51
2023-04-30T00:56:59.336Z,77.23
2023-04-30T01:00:02.219Z,76.17
2023-04-30T01:03:04.707Z,76.51
2023-04-30T01:06:06.920Z,75.64
2023-04-30T01:09:10.524Z,77.05
2023-04-30T01:12:29.762Z,76.59
2023-04-30T01:15:38.723Z,76.67
2023-04-30T01:18:49.536Z,75.25
2023-04-30T01:21:53.039Z,76.03
2023-04-30T01:25:10.105Z,76.51
2023-04-30T01:28:20.853Z,75.73
2023-04-30T01:31:24.589Z,75.75
2023-04-30T01:34:26.910Z,76.26
2023-04-30T01:38:04.159Z,76.36
2023-04-30T01:41:30.970Z,76.31
2023-04-30T01:44:58.798Z,76.16
2023-04-30T01:48:34.803Z,76.19
2023-04-30T01:51:46.733Z,76.33
2023-04-30T01:54:56.466Z,75.95
2023-04-30T01:58:05.336Z,75.83
2023-04-30T02:01:30.019Z,76.39
2023-04-30T02:04:32.503Z,75.67
2023-04-30T02:07:44.207Z,75.55
2023-04-30T02:10:46.416Z,75.26
2023-04-30T02:13:48.633Z,75.27
2023-04-30T02:16:50.835Z,75.78
2023-04-30T02:19:53.089Z,75.36
2023-04-30T02:22:55.471Z,75.38
2023-04-30T02:25:57.608Z,75.57
2023-04-30T02:28:59.652Z,75.22
2023-04-30T02:32:02.127Z,74.84
2023-04-30T02:35:04.626Z,75.01
2023-04-30T02:38:07.364Z,74.87
2023-04-30T02:41:09.387Z,74.79
2023-04-30T02:44:12.547Z,74.58
2023-04-30T02:47:15.068Z,74.84
2023-04-30T02:50:17.287Z,74.80
2023-04-30T02:53:19.502Z,74.34
2023-04-30T02:56:21.474Z,73.94
2023-04-30T02:59:23.648Z,74.80
2023-04-30T03:02:25.782Z,75.22
2023-04-30T03:05:28.876Z,74.51
2023-04-30T03:08:31.060Z,74.64
2023-04-30T03:11:33.896Z,75.08
2023-04-30T03:14:36.097Z,75.04
2023-04-30T03:17:38.368Z,74.96
2023-04-30T03:20:40.572Z,74.36
2023-04-30T03:23:42.755Z,74.21
2023-04-30T03:26:44.747Z,74.17
2023-04-30T03:29:47.063Z,73.28
2023-04-30T03:32:49.184Z,72.93
2023-04-30T03:35:52.008Z,73.57
2023-04-30T03:38:54.658Z,72.36
2023-04-30T03:41:56.792Z,72.09
2023-04-30T03:44:58.886Z,71.84
2023-04-30T03:48:01.076Z,72.61
2023-04-30T03:51:03.509Z,72.90
2023-04-30T03:54:08.768Z,72.87
2023-04-30T03:57:13.050Z,72.54
2023-04-30T04:00:15.697Z,71.98
2023-04-30T04:03:23.342Z,71.56
2023-04-30T04:06:25.556Z,71.71
2023-04-30T04:09:27.663Z,71.75
2023-04-30T04:12:29.730Z,78.10
2023-04-30T04:15:36.974Z,82.24
2023-04-30T04:18:40.723Z,85.92
2023-04-30T04:21:43.013Z,90.23
2023-04-30T04:24:50.026Z,98.02
2023-04-30T04:27:55.492Z,100.00
2023-04-30T04:30:57.727Z,100.00
2023-04-30T04:34:01.474Z,100.00
2023-04-30T04:37:03.784Z,100.00
2023-04-30T04:40:07.220Z,100.00
2023-04-30T04:43:09.368Z,100.00
2023-04-30T04:46:13.763Z,100.00
2023-04-30T04:49:16.674Z,100.00
2023-04-30T04:52:18.776Z,100.00
2023-04-30T04:55:20.848Z,100.00
2023-04-30T04:58:22.982Z,100.00
2023-04-30T05:01:25.190Z,99.04
2023-04-30T05:04:28.137Z,98.74
2023-04-30T05:07:30.329Z,98.43
2023-04-30T05:10:32.821Z,96.27
2023-04-30T05:13:34.918Z,94.13
2023-04-30T05:16:37.305Z,91.38
2023-04-30T05:19:39.639Z,90.01
2023-04-30T05:22:41.936Z,88.84
2023-04-30T05:25:47.531Z,86.99
2023-04-30T05:29:19.087Z,87.27
2023-04-30T05:32:23.409Z,86.33
2023-04-30T05:35:30.619Z,86.49
2023-04-30T05:38:33.036Z,86.89
2023-04-30T05:41:35.103Z,86.53
2023-04-30T05:44:37.417Z,85.44
2023-04-30T05:47:39.544Z,84.21
2023-04-30T05:50:41.714Z,83.11
2023-04-30T05:53:43.836Z,84.08
2023-04-30T05:56:46.518Z,83.66
2023-04-30T05:59:48.539Z,82.47
2023-04-30T06:02:50.893Z,82.78
2023-04-30T06:05:54.265Z,83.28
2023-04-30T06:08:56.464Z,86.86
2023-04-30T06:11:58.664Z,79.51
2023-04-30T06:15:00.869Z,72.82
2023-04-30T06:18:03.380Z,78.19
2023-04-30T06:21:05.710Z,83.07
2023-04-30T06:24:10.151Z,85.43
2023-04-30T06:27:12.277Z,85.53
2023-04-30T06:30:15.682Z,85.31
2023-04-30T06:33:18.264Z,85.73
2023-04-30T06:36:20.523Z,84.40
2023-04-30T06:39:22.632Z,84.35
2023-04-30T06:42:24.621Z,83.95
2023-04-30T06:45:26.928Z,83.11
2023-04-30T06:48:29.291Z,82.64
2023-04-30T06:51:31.464Z,82.47
2023-04-30T06:54:33.608Z,81.85
2023-04-30T06:57:38.621Z,81.78
2023-04-30T07:00:40.975Z,81.88
2023-04-30T07:03:43.231Z,82.16
2023-04-30T07:06:49.711Z,81.86
2023-04-30T07:09:53.750Z,81.92
2023-04-30T07:12:56.894Z,82.42
2023-04-30T07:15:59.738Z,81.73
2023-04-30T07:19:01.902Z,81.02
2023-04-30T07:22:04.220Z,92.06
2023-04-30T07:25:06.995Z,99.37
2023-04-30T07:28:09.045Z,84.23
2023-04-30T07:31:11.258Z,81.54
2023-04-30T07:34:13.491Z,78.41
2023-04-30T07:37:16.386Z,77.42
2023-04-30T07:40:25.377Z,77.09
2023-04-30T07:43:37.388Z,75.95
2023-04-30T07:46:40.186Z,76.50
2023-04-30T07:49:42.467Z,75.61
2023-04-30T07:52:52.144Z,74.21
2023-04-30T07:55:54.267Z,74.59
2023-04-30T07:58:56.389Z,73.38
2023-04-30T08:01:59.228Z,73.30
2023-04-30T08:05:01.675Z,73.27
2023-04-30T08:08:03.845Z,71.89
2023-04-30T08:11:06.261Z,67.79
2023-04-30T08:14:08.502Z,66.91
2023-04-30T08:17:12.152Z,63.81
2023-04-30T08:20:14.356Z,63.72
2023-04-30T08:23:17.361Z,88.65
2023-04-30T08:26:20.464Z,63.49
2023-04-30T08:29:22.531Z,62.69
2023-04-30T08:32:24.928Z,62.54
2023-04-30T08:35:27.145Z,61.66
2023-04-30T08:38:29.307Z,61.96
2023-04-30T08:41:34.476Z,62.60
2023-04-30T08:44:43.975Z,60.70
2023-04-30T08:47:46.840Z,60.08
2023-04-30T08:50:49.036Z,62.59
2023-04-30T08:53:53.486Z,61.00
2023-04-30T08:56:55.472Z,61.08
2023-04-30T08:59:58.240Z,60.43
2023-04-30T09:03:02.263Z,77.44
2023-04-30T09:06:05.950Z,69.08
2023-04-30T09:09:16.565Z,66.74
2023-04-30T09:12:20.027Z,65.44
2023-04-30T09:15:24.449Z,65.82
2023-04-30T09:18:26.695Z,62.36
2023-04-30T09:21:38.868Z,64.79
2023-04-30T09:24:52.201Z,64.25
2023-04-30T09:28:12.294Z,66.07
2023-04-30T09:31:22.256Z,65.67
2023-04-30T09:34:35.408Z,64.38
2023-04-30T09:37:38.847Z,67.96
2023-04-30T09:40:42.770Z,66.69
2023-04-30T09:43:45.717Z,67.26
2023-04-30T09:46:51.108Z,66.06
2023-04-30T09:49:57.162Z,66.38
2023-04-30T09:53:21.114Z,67.20
2023-04-30T09:56:37.237Z,68.45
2023-04-30T10:00:00.035Z,66.61
2023-04-30T10:03:12.071Z,67.33
2023-04-30T10:06:16.961Z,64.87
2023-04-30T10:09:25.376Z,66.18
2023-04-30T10:12:59.728Z,64.23
2023-04-30T10:16:24.197Z,64.63
2023-04-30T10:19:32.427Z,63.28
2023-04-30T10:22:36.740Z,62.09
2023-04-30T10:25:41.611Z,62.31
2023-04-30T10:28:50.210Z,61.65
2023-04-30T10:31:53.951Z,62.03
2023-04-30T10:35:06.613Z,60.56
2023-04-30T10:38:17.936Z,60.13
2023-04-30T10:41:25.816Z,59.95
2023-04-30T10:44:28.220Z,59.66
2023-04-30T10:47:32.550Z,60.11
2023-04-30T10:50:45.025Z,59.37
2023-04-30T10:53:52.060Z,60.43
2023-04-30T10:57:11.619Z,60.32
2023-04-30T11:00:14.676Z,60.11
2023-04-30T11:03:17.129Z,58.37
2023-04-30T11:06:22.240Z,59.41
2023-04-30T11:09:45.669Z,60.31
2023-04-30T11:12:49.418Z,59.29
2023-04-30T11:15:51.769Z,58.09
2023-04-30T11:18:54.589Z,58.19
2023-04-30T11:22:17.130Z,58.79
2023-04-30T11:25:20.064Z,57.42
2023-04-30T11:28:26.347Z,57.26
2023-04-30T11:31:35.186Z,57.92
2023-04-30T11:34:38.219Z,56.80
2023-04-30T11:37:45.506Z,56.42
2023-04-30T11:40:52.200Z,56.06
2023-04-30T11:43:54.425Z,57.39
2023-04-30T11:46:56.825Z,57.13
2023-04-30T11:49:59.094Z,58.49
2023-04-30T11:53:05.753Z,57.93
2023-04-30T11:56:12.005Z,56.55
2023-04-30T11:59:16.362Z,57.19
2023-04-30T12:02:20.461Z,56.09
2023-04-30T12:05:26.955Z,56.57
2023-04-30T12:08:32.139Z,56.36
2023-04-30T12:11:35.999Z,56.55
2023-04-30T12:32:19.106Z,54.68
2023-04-30T12:35:23.367Z,54.41
2023-04-30T12:38:26.347Z,55.23
2023-04-30T12:41:30.483Z,55.09
2023-04-30T12:44:43.491Z,55.01
2023-04-30T12:47:55.573Z,54.95
2023-04-30T12:51:02.648Z,55.01
2023-04-30T12:54:05.046Z,54.05
2023-04-30T12:57:13.805Z,54.55
2023-04-30T13:01:30.832Z,53.82
2023-04-30T13:10:22.751Z,53.19
2023-04-30T13:13:25.323Z,53.55
2023-04-30T13:21:16.627Z,53.41
2023-04-30T13:24:19.808Z,52.60
2023-04-30T13:27:27.778Z,53.53
2023-04-30T13:30:30.871Z,53.48
2023-04-30T13:33:33.117Z,53.45
2023-04-30T13:37:00.582Z,52.72
2023-04-30T13:45:29.759Z,52.51
2023-04-30T13:48:31.846Z,53.56
2023-04-30T13:51:34.748Z,52.69
2023-04-30T13:54:37.822Z,52.91
2023-04-30T13:57:40.389Z,51.49
2023-04-30T14:00:42.832Z,51.98
2023-04-30T14:04:14.512Z,52.23
2023-04-30T14:07:41.004Z,51.87
2023-04-30T14:10:44.532Z,51.40
2023-04-30T14:13:49.338Z,52.65
2023-04-30T14:16:51.930Z,53.22
2023-04-30T14:19:57.428Z,53.05
2023-04-30T14:23:02.626Z,52.50
2023-04-30T14:26:05.922Z,52.17
2023-04-30T14:29:09.233Z,52.61
2023-04-30T14:32:38.266Z,51.90
2023-04-30T14:52:47.937Z,52.02
2023-04-30T14:55:53.495Z,52.57
2023-04-30T14:58:55.611Z,51.51
2023-04-30T15:06:47.492Z,53.35
2023-04-30T15:09:50.466Z,53.33
2023-04-30T15:12:52.642Z,54.34
2023-04-30T15:15:54.860Z,53.88
2023-04-30T15:18:57.172Z,59.48
2023-04-30T15:21:59.755Z,62.38
2023-04-30T15:25:02.515Z,64.95
2023-04-30T15:28:05.902Z,64.63
2023-04-30T15:31:08.597Z,63.42
2023-04-30T15:34:10.740Z,64.91
2023-04-30T15:37:12.995Z,65.85
2023-04-30T15:40:18.761Z,66.06
2023-04-30T15:43:21.513Z,66.75
2023-04-30T15:46:26.190Z,65.63
2023-04-30T15:49:29.876Z,65.64
2023-04-30T15:52:32.316Z,65.45
2023-04-30T15:55:34.853Z,65.60
2023-04-30T15:58:39.315Z,65.07
2023-04-30T16:01:46.841Z,64.43
2023-04-30T16:04:51.050Z,63.20
2023-04-30T16:07:55.186Z,62.51
2023-04-30T16:10:58.165Z,62.16
2023-04-30T16:14:00.310Z,64.19
2023-04-30T16:17:02.998Z,64.04
2023-04-30T16:20:10.796Z,64.23
2023-04-30T16:23:13.129Z,64.67
2023-04-30T16:26:16.185Z,64.91
2023-04-30T16:29:26.567Z,64.18
2023-04-30T16:32:28.659Z,63.99
2023-04-30T16:35:38.650Z,64.06
2023-04-30T16:38:43.152Z,64.79
2023-04-30T16:41:45.464Z,64.01
2023-04-30T16:44:47.579Z,64.23
2023-04-30T16:47:49.842Z,64.92
2023-04-30T16:50:52.586Z,64.42
2023-04-30T16:53:57.164Z,64.14
2023-04-30T16:56:59.530Z,65.31
2023-04-30T17:00:01.615Z,65.25
2023-04-30T17:03:05.593Z,65.60
2023-04-30T17:06:10.106Z,64.80
2023-04-30T17:09:12.537Z,65.16
2023-04-30T17:12:21.395Z,66.00
2023-04-30T17:19:32.461Z,66.87
2023-04-30T17:22:35.024Z,65.92
2023-04-30T17:25:38.360Z,66.11
2023-04-30T17:28:40.414Z,66.82
2023-04-30T17:31:44.370Z,66.29
2023-04-30T17:34:46.680Z,66.52
2023-04-30T17:37:50.244Z,64.53
2023-04-30T17:40:54.576Z,64.37
2023-04-30T17:43:57.423Z,65.07
2023-04-30T17:46:59.642Z,65.64
2023-04-30T17:50:04.937Z,64.88
2023-04-30T17:53:07.889Z,66.02
2023-04-30T17:56:12.510Z,65.91
2023-04-30T17:59:15.900Z,64.96
2023-04-30T18:02:32.790Z,65.11
2023-04-30T18:05:35.766Z,65.10
2023-04-30T18:08:39.469Z,65.17
2023-04-30T18:11:49.440Z,64.05
2023-04-30T18:14:51.490Z,65.33
2023-04-30T18:17:55.207Z,65.00
2023-04-30T18:20:57.499Z,64.87
2023-04-30T18:24:01.249Z,65.26
2023-04-30T18:27:04.064Z,65.72
2023-04-30T18:30:08.996Z,65.92
2023-04-30T18:33:11.041Z,66.12
2023-04-30T18:36:13.322Z,66.01
2023-04-30T18:39:15.458Z,66.47
2023-04-30T18:42:17.895Z,66.22
2023-04-30T18:45:20.713Z,66.61
2023-04-30T18:48:24.136Z,66.31
2023-04-30T18:51:26.630Z,66.79
2023-04-30T18:54:30.316Z,66.41
2023-04-30T18:57:32.548Z,68.06
2023-04-30T19:00:34.640Z,68.02
2023-04-30T19:03:37.120Z,67.28
2023-04-30T19:06:40.112Z,66.74
2023-04-30T19:09:45.446Z,67.45
2023-04-30T19:12:47.831Z,67.35
2023-04-30T19:15:55.479Z,67.70
2023-04-30T19:18:58.349Z,68.11
2023-04-30T19:22:02.520Z,67.05
2023-04-30T19:25:05.724Z,68.38
2023-04-30T19:28:12.980Z,67.91
2023-04-30T19:31:16.113Z,69.64
2023-04-30T19:34:18.196Z,69.72
2023-04-30T19:37:20.234Z,70.62
2023-04-30T19:40:23.006Z,70.56
2023-04-30T19:43:25.285Z,69.84
2023-04-30T19:46:27.610Z,70.69
2023-04-30T19:49:29.790Z,70.42
2023-04-30T19:52:31.988Z,69.93
2023-04-30T19:55:35.177Z,70.32
2023-04-30T19:58:37.369Z,70.85
2023-04-30T20:01:40.173Z,70.34
2023-04-30T20:04:42.283Z,71.01
2023-04-30T20:07:44.343Z,70.13
2023-04-30T20:10:51.011Z,69.89
2023-04-30T20:13:55.321Z,70.58
2023-04-30T20:16:59.582Z,69.95
2023-04-30T20:20:02.967Z,71.26
2023-04-30T20:23:17.096Z,71.10
2023-04-30T20:26:21.195Z,70.66
2023-04-30T20:29:23.545Z,71.27
2023-04-30T20:32:29.006Z,71.89
2023-04-30T20:35:32.324Z,71.01
2023-04-30T20:38:34.809Z,71.14
2023-04-30T20:41:36.986Z,71.94
2023-04-30T20:44:41.396Z,71.64
2023-04-30T20:47:43.484Z,70.61
2023-04-30T20:50:46.276Z,71.83
2023-04-30T20:53:48.503Z,70.87
2023-04-30T20:56:50.668Z,71.55
2023-04-30T20:59:52.825Z,71.76
2023-04-30T21:02:55.133Z,71.41
2023-04-30T21:05:57.493Z,71.76
2023-04-30T21:08:59.675Z,71.90
2023-04-30T21:12:04.585Z,72.49
2023-04-30T21:15:07.651Z,71.94
2023-04-30T21:18:09.907Z,72.13
2023-04-30T21:21:12.382Z,71.72
2023-04-30T21:24:14.675Z,72.69
2023-04-30T21:27:16.777Z,72.79
2023-04-30T21:30:19.289Z,72.80
2023-04-30T21:33:21.505Z,71.84
2023-04-30T21:36:24.095Z,72.58
2023-04-30T21:39:26.993Z,71.65
2023-04-30T21:42:29.905Z,73.16
2023-04-30T21:45:32.622Z,72.61
2023-04-30T21:48:34.712Z,72.00
2023-04-30T21:51:37.560Z,72.43
2023-04-30T21:54:39.723Z,71.85
2023-04-30T21:57:41.864Z,71.85
2023-04-30T22:00:43.988Z,72.44
2023-04-30T22:03:46.158Z,73.05
2023-04-30T22:06:48.451Z,72.65
2023-04-30T22:09:52.764Z,72.85
2023-04-30T22:12:54.824Z,72.85
2023-04-30T22:15:57.076Z,72.27
2023-04-30T22:18:59.636Z,73.07
2023-04-30T22:22:01.979Z,72.53
2023-04-30T22:25:04.756Z,72.43
2023-04-30T22:28:07.349Z,72.06
2023-04-30T22:31:09.648Z,72.62
2023-04-30T22:34:14.473Z,73.03
2023-04-30T22:37:16.781Z,72.51
2023-04-30T22:40:19.368Z,72.65
2023-04-30T22:43:21.594Z,71.89
2023-04-30T22:46:23.809Z,73.11
2023-04-30T22:49:31.061Z,72.60
2023-04-30T22:52:34.650Z,72.98
2023-04-30T22:55:36.836Z,72.97
2023-04-30T22:58:38.887Z,72.31
2023-04-30T23:01:40.937Z,72.76
2023-04-30T23:04:43.096Z,72.84
2023-04-30T23:07:48.855Z,71.68
2023-04-30T23:10:53.220Z,72.64
2023-04-30T23:13:55.937Z,72.24
2023-04-30T23:16:59.905Z,72.83
2023-04-30T23:20:02.126Z,71.92
2023-04-30T23:23:04.173Z,72.21
2023-04-30T23:26:06.567Z,72.88
2023-04-30T23:29:08.723Z,73.11
2023-04-30T23:32:10.858Z,71.91
2023-04-30T23:35:13.050Z,72.47
2023-04-30T23:38:15.545Z,72.64
2023-04-30T23:41:18.104Z,73.04
2023-04-30T23:44:20.692Z,72.79
2023-04-30T23:47:23.215Z,72.71
2023-04-30T23:50:27.060Z,72.04
2023-04-30T23:53:29.381Z,72.59
2023-04-30T23:56:33.572Z,72.23
2023-04-30T23:59:35.651Z,70.79
